sensor_id;sensor_type;location;lat;lon;timestamp;pressure;altitude;pressure_sealevel;temperature;humidity
55590;BME280;41452;42.780;23.116;2023-09-07T00:01:42;94836.78;;;21.45;73.54
55590;BME280;41452;42.780;23.116;2023-09-07T00:04:07;94814.53;;;21.31;73.54
55590;BME280;41452;42.780;23.116;2023-09-07T00:06:32;94816.09;;;21.32;73.38
55590;BME280;41452;42.780;23.116;2023-09-07T00:08:59;94838.47;;;21.41;73.76
55590;BME280;41452;42.780;23.116;2023-09-07T00:11:25;94833.19;;;21.36;73.99
55590;BME280;41452;42.780;23.116;2023-09-07T00:13:50;94841.75;;;21.33;72.48
55590;BME280;41452;42.780;23.116;2023-09-07T00:16:16;94836.59;;;21.17;73.16
55590;BME280;41452;42.780;23.116;2023-09-07T00:18:41;94837.72;;;21.11;73.10
55590;BME280;41452;42.780;23.116;2023-09-07T00:21:07;94836.13;;;21.10;73.74
55590;BME280;41452;42.780;23.116;2023-09-07T00:23:32;94845.50;;;21.07;74.09
55590;BME280;41452;42.780;23.116;2023-09-07T00:25:57;94839.22;;;20.98;73.63
55590;BME280;41452;42.780;23.116;2023-09-07T00:28:23;94832.31;;;20.92;73.44
55590;BME280;41452;42.780;23.116;2023-09-07T00:30:48;94845.66;;;20.92;73.30
55590;BME280;41452;42.780;23.116;2023-09-07T00:33:14;94849.44;;;20.91;73.78
55590;BME280;41452;42.780;23.116;2023-09-07T00:35:39;94820.97;;;20.81;73.96
55590;BME280;41452;42.780;23.116;2023-09-07T00:38:04;94854.69;;;20.96;74.10
55590;BME280;41452;42.780;23.116;2023-09-07T00:40:30;94846.22;;;20.89;74.62
55590;BME280;41452;42.780;23.116;2023-09-07T00:42:55;94846.34;;;20.79;76.42
55590;BME280;41452;42.780;23.116;2023-09-07T00:45:21;94817.88;;;20.69;77.37
55590;BME280;41452;42.780;23.116;2023-09-07T00:47:47;94844.09;;;20.91;77.96
55590;BME280;41452;42.780;23.116;2023-09-07T00:50:12;94847.28;;;20.93;78.59
55590;BME280;41452;42.780;23.116;2023-09-07T00:52:46;94846.69;;;20.96;78.94
55590;BME280;41452;42.780;23.116;2023-09-07T00:55:12;94848.81;;;20.99;78.84
55590;BME280;41452;42.780;23.116;2023-09-07T00:57:38;94853.91;;;20.96;79.26
55590;BME280;41452;42.780;23.116;2023-09-07T01:00:05;94848.63;;;20.91;80.51
55590;BME280;41452;42.780;23.116;2023-09-07T01:02:31;94844.38;;;20.89;80.72
55590;BME280;41452;42.780;23.116;2023-09-07T01:04:57;94835.03;;;20.87;81.80
55590;BME280;41452;42.780;23.116;2023-09-07T01:07:35;94845.72;;;20.87;82.09
55590;BME280;41452;42.780;23.116;2023-09-07T01:10:02;94844.94;;;20.86;82.81
55590;BME280;41452;42.780;23.116;2023-09-07T01:12:28;94845.22;;;20.85;83.33
55590;BME280;41452;42.780;23.116;2023-09-07T01:14:54;94839.88;;;20.85;83.95
55590;BME280;41452;42.780;23.116;2023-09-07T06:25:27;94926.81;;;19.62;98.85
55590;BME280;41452;42.780;23.116;2023-09-07T06:27:53;94930.00;;;19.64;98.46
55590;BME280;41452;42.780;23.116;2023-09-07T06:30:18;94926.78;;;19.72;95.00
55590;BME280;41452;42.780;23.116;2023-09-07T06:32:44;94921.19;;;19.69;94.47
55590;BME280;41452;42.780;23.116;2023-09-07T06:35:10;94939.28;;;19.82;93.96
55590;BME280;41452;42.780;23.116;2023-09-07T06:37:36;94929.44;;;19.83;94.19
55590;BME280;41452;42.780;23.116;2023-09-07T06:40:02;94937.34;;;19.93;96.24
55590;BME280;41452;42.780;23.116;2023-09-07T06:42:29;94930.41;;;20.02;95.43
55590;BME280;41452;42.780;23.116;2023-09-07T06:44:56;94891.06;;;19.73;91.30
55590;BME280;41452;42.780;23.116;2023-09-07T06:47:21;94925.59;;;19.99;91.74
55590;BME280;41452;42.780;23.116;2023-09-07T06:49:46;94932.50;;;20.05;91.29
55590;BME280;41452;42.780;23.116;2023-09-07T06:52:12;94902.78;;;19.83;91.70
55590;BME280;41452;42.780;23.116;2023-09-07T06:54:38;94929.81;;;20.10;91.50
55590;BME280;41452;42.780;23.116;2023-09-07T06:57:06;94903.78;;;19.92;89.71
55590;BME280;41452;42.780;23.116;2023-09-07T06:59:33;94931.47;;;19.96;89.72
55590;BME280;41452;42.780;23.116;2023-09-07T07:01:58;94921.94;;;19.90;88.02
55590;BME280;41452;42.780;23.116;2023-09-07T07:04:25;94924.06;;;19.88;88.15
55590;BME280;41452;42.780;23.116;2023-09-07T07:06:51;94931.53;;;19.86;89.64
55590;BME280;41452;42.780;23.116;2023-09-07T07:09:16;94932.59;;;19.90;90.57
55590;BME280;41452;42.780;23.116;2023-09-07T07:11:41;94922.72;;;19.90;90.02
55590;BME280;41452;42.780;23.116;2023-09-07T07:14:08;94922.34;;;20.07;90.99
55590;BME280;41452;42.780;23.116;2023-09-07T07:16:34;94906.34;;;20.07;85.62
55590;BME280;41452;42.780;23.116;2023-09-07T07:19:00;94919.34;;;20.19;84.91
55590;BME280;41452;42.780;23.116;2023-09-07T07:21:25;94928.13;;;20.20;87.04
55590;BME280;41452;42.780;23.116;2023-09-07T07:23:50;94923.63;;;20.20;88.16
55590;BME280;41452;42.780;23.116;2023-09-07T07:26:16;94939.75;;;20.39;88.90
55590;BME280;41452;42.780;23.116;2023-09-07T07:28:42;94936.22;;;20.49;84.43
55590;BME280;41452;42.780;23.116;2023-09-07T07:31:09;94926.06;;;20.51;82.70
55590;BME280;41452;42.780;23.116;2023-09-07T07:33:34;94937.97;;;20.69;83.49
55590;BME280;41452;42.780;23.116;2023-09-07T07:36:00;94925.22;;;20.61;81.35
55590;BME280;41452;42.780;23.116;2023-09-07T07:38:25;94929.47;;;20.62;82.18
55590;BME280;41452;42.780;23.116;2023-09-07T07:40:51;94931.81;;;20.74;81.74
55590;BME280;41452;42.780;23.116;2023-09-07T07:43:18;94931.22;;;20.77;82.11
55590;BME280;41452;42.780;23.116;2023-09-07T07:45:43;94939.47;;;20.80;82.36
55590;BME280;41452;42.780;23.116;2023-09-07T07:48:08;94916.06;;;20.72;78.02
55590;BME280;41452;42.780;23.116;2023-09-07T07:50:38;94915.81;;;20.68;80.06
55590;BME280;41452;42.780;23.116;2023-09-07T07:53:06;94930.16;;;20.78;79.36
55590;BME280;41452;42.780;23.116;2023-09-07T07:55:38;94920.38;;;20.68;78.74
55590;BME280;41452;42.780;23.116;2023-09-07T07:58:08;94906.00;;;20.59;79.33
55590;BME280;41452;42.780;23.116;2023-09-07T08:00:37;94910.75;;;20.67;77.31
55590;BME280;41452;42.780;23.116;2023-09-07T08:03:03;94917.75;;;20.63;78.40
55590;BME280;41452;42.780;23.116;2023-09-07T08:05:31;94918.53;;;20.63;79.56
55590;BME280;41452;42.780;23.116;2023-09-07T08:07:57;94921.16;;;20.68;79.06
55590;BME280;41452;42.780;23.116;2023-09-07T08:10:23;94922.47;;;20.71;78.40
55590;BME280;41452;42.780;23.116;2023-09-07T08:12:53;94925.94;;;20.72;76.52
55590;BME280;41452;42.780;23.116;2023-09-07T08:15:18;94929.69;;;20.70;77.26
55590;BME280;41452;42.780;23.116;2023-09-07T08:17:46;94925.72;;;20.68;77.76
55590;BME280;41452;42.780;23.116;2023-09-07T08:20:12;94928.31;;;20.73;78.57
55590;BME280;41452;42.780;23.116;2023-09-07T08:22:39;94920.38;;;20.68;77.91
55590;BME280;41452;42.780;23.116;2023-09-07T14:35:15;94801.78;;;22.23;66.29
55590;BME280;41452;42.780;23.116;2023-09-07T14:37:41;94827.22;;;22.39;65.47
55590;BME280;41452;42.780;23.116;2023-09-07T14:40:07;94830.19;;;22.37;65.48
55590;BME280;41452;42.780;23.116;2023-09-07T14:42:33;94830.97;;;22.38;64.50
55590;BME280;41452;42.780;23.116;2023-09-07T14:44:59;94827.59;;;22.32;66.93
55590;BME280;41452;42.780;23.116;2023-09-07T14:47:30;94829.69;;;22.35;66.93
55590;BME280;41452;42.780;23.116;2023-09-07T14:49:55;94832.78;;;22.43;67.05
55590;BME280;41452;42.780;23.116;2023-09-07T14:52:21;94827.50;;;22.37;67.64
55590;BME280;41452;42.780;23.116;2023-09-07T14:54:49;94817.09;;;22.36;67.51
55590;BME280;41452;42.780;23.116;2023-09-07T14:57:15;94822.56;;;22.45;67.54
55590;BME280;41452;42.780;23.116;2023-09-07T14:59:40;94827.63;;;22.46;66.33
55590;BME280;41452;42.780;23.116;2023-09-07T15:02:06;94830.59;;;22.45;66.57
55590;BME280;41452;42.780;23.116;2023-09-07T15:04:32;94822.34;;;22.41;66.76
55590;BME280;41452;42.780;23.116;2023-09-07T15:06:58;94829.59;;;22.40;65.02
55590;BME280;41452;42.780;23.116;2023-09-07T15:09:23;94826.31;;;22.44;65.54
55590;BME280;41452;42.780;23.116;2023-09-07T15:11:49;94829.19;;;22.47;65.81
55590;BME280;41452;42.780;23.116;2023-09-07T15:14:15;94796.63;;;22.26;66.59
55590;BME280;41452;42.780;23.116;2023-09-07T15:16:40;94824.75;;;22.43;65.32
55590;BME280;41452;42.780;23.116;2023-09-07T15:19:06;94823.06;;;22.47;66.21
55590;BME280;41452;42.780;23.116;2023-09-07T15:21:31;94825.53;;;22.43;66.35
55590;BME280;41452;42.780;23.116;2023-09-07T15:23:56;94828.91;;;22.49;67.35
55590;BME280;41452;42.780;23.116;2023-09-07T15:26:22;94832.19;;;22.46;67.77
55590;BME280;41452;42.780;23.116;2023-09-07T15:28:49;94825.81;;;22.42;66.36
55590;BME280;41452;42.780;23.116;2023-09-07T15:31:14;94831.38;;;22.45;67.35
55590;BME280;41452;42.780;23.116;2023-09-07T15:33:39;94803.91;;;22.20;65.11
55590;BME280;41452;42.780;23.116;2023-09-07T15:36:05;94825.97;;;22.31;66.24
55590;BME280;41452;42.780;23.116;2023-09-07T15:38:30;94823.91;;;22.28;63.99
55590;BME280;41452;42.780;23.116;2023-09-07T15:40:56;94825.78;;;22.28;65.03
55590;BME280;41452;42.780;23.116;2023-09-07T15:43:22;94825.00;;;22.27;64.98
55590;BME280;41452;42.780;23.116;2023-09-07T15:45:47;94824.41;;;22.30;64.98
55590;BME280;41452;42.780;23.116;2023-09-07T15:48:13;94821.44;;;22.32;64.83
55590;BME280;41452;42.780;23.116;2023-09-07T15:50:39;94815.28;;;22.31;64.78
55590;BME280;41452;42.780;23.116;2023-09-07T15:53:04;94821.72;;;22.30;64.88
55590;BME280;41452;42.780;23.116;2023-09-07T15:55:30;94823.31;;;22.31;65.04
55590;BME280;41452;42.780;23.116;2023-09-07T15:57:55;94819.28;;;22.34;64.92
55590;BME280;41452;42.780;23.116;2023-09-07T16:00:21;94817.38;;;22.34;65.16
55590;BME280;41452;42.780;23.116;2023-09-07T16:02:46;94821.94;;;22.34;65.85
55590;BME280;41452;42.780;23.116;2023-09-07T16:05:12;94805.25;;;22.23;65.22
55590;BME280;41452;42.780;23.116;2023-09-07T16:07:37;94810.81;;;22.27;65.29
55590;BME280;41452;42.780;23.116;2023-09-07T16:10:03;94816.69;;;22.29;66.15
55590;BME280;41452;42.780;23.116;2023-09-07T16:12:29;94828.38;;;22.33;66.34
55590;BME280;41452;42.780;23.116;2023-09-07T16:14:54;94825.91;;;22.36;66.40
55590;BME280;41452;42.780;23.116;2023-09-07T16:17:20;94831.34;;;22.31;66.80
55590;BME280;41452;42.780;23.116;2023-09-07T16:19:45;94824.41;;;22.30;66.13
55590;BME280;41452;42.780;23.116;2023-09-07T16:22:10;94836.75;;;22.26;66.30
55590;BME280;41452;42.780;23.116;2023-09-07T16:24:37;94835.16;;;22.25;67.11
55590;BME280;41452;42.780;23.116;2023-09-07T16:27:03;94839.81;;;22.19;68.45
55590;BME280;41452;42.780;23.116;2023-09-07T16:29:28;94838.41;;;22.22;68.85
55590;BME280;41452;42.780;23.116;2023-09-07T16:31:53;94826.38;;;22.06;69.65
55590;BME280;41452;42.780;23.116;2023-09-07T16:34:19;94842.75;;;22.18;69.68
